TimeMST,TemperatureF,Dew PointF,Humidity,Sea Level PressureIn,VisibilityMPH,Wind Direction,Wind SpeedMPH,Gust SpeedMPH,PrecipitationIn,Events,Conditions,WindDirDegrees,DateUTC
12:16 AM,39.2,10.4,31,30.06,10.0,SW,13.8,-,N/A,,Clear,220,2012-11-08 07:16:00
12:36 AM,41.0,8.6,26,30.06,10.0,SW,12.7,-,N/A,,Clear,220,2012-11-08 07:36:00
12:56 AM,39.2,8.6,28,30.05,10.0,SW,11.5,-,N/A,,Clear,220,2012-11-08 07:56:00
1:16 AM,39.2,10.4,31,30.05,10.0,SW,12.7,17.3,N/A,,Clear,220,2012-11-08 08:16:00
1:36 AM,37.4,10.4,33,30.05,10.0,WSW,12.7,-,N/A,,Clear,240,2012-11-08 08:36:00
1:56 AM,39.2,10.4,31,30.04,10.0,SW,16.1,19.6,N/A,,Clear,230,2012-11-08 08:56:00
2:16 AM,39.2,10.4,31,30.04,10.0,SW,13.8,18.4,N/A,,Clear,230,2012-11-08 09:16:00
2:36 AM,39.2,10.4,31,30.04,10.0,SW,11.5,-,N/A,,Clear,230,2012-11-08 09:36:00
2:56 AM,39.2,10.4,31,30.03,10.0,SW,12.7,18.4,N/A,,Clear,220,2012-11-08 09:56:00
3:16 AM,39.2,10.4,31,30.03,10.0,SW,10.4,-,N/A,,Clear,220,2012-11-08 10:16:00
3:36 AM,37.4,12.2,36,30.03,10.0,SW,12.7,-,N/A,,Clear,230,2012-11-08 10:36:00
3:56 AM,39.2,10.4,31,30.02,10.0,SW,12.7,-,N/A,,Clear,220,2012-11-08 10:56:00
4:16 AM,39.2,10.4,31,30.02,10.0,SW,12.7,16.1,N/A,,Clear,230,2012-11-08 11:16:00
4:36 AM,39.2,10.4,31,30.02,10.0,South,10.4,16.1,N/A,,Clear,190,2012-11-08 11:36:00
4:56 AM,37.4,10.4,33,30.02,10.0,South,10.4,-,N/A,,Clear,170,2012-11-08 11:56:00
5:16 AM,39.2,10.4,31,30.01,10.0,SSE,10.4,-,N/A,,Clear,150,2012-11-08 12:16:00
5:56 AM,39.2,10.4,31,30.01,10.0,SSE,12.7,19.6,N/A,,Clear,160,2012-11-08 12:56:00
6:16 AM,37.4,10.4,33,30.00,10.0,SE,10.4,-,N/A,,Clear,140,2012-11-08 13:16:00
6:36 AM,37.4,12.2,36,29.99,10.0,SE,13.8,19.6,N/A,,Clear,140,2012-11-08 13:36:00
6:56 AM,37.4,12.2,36,30.00,10.0,SE,13.8,-,N/A,,Clear,140,2012-11-08 13:56:00
7:16 AM,37.4,12.2,36,30.00,10.0,SE,12.7,20.7,N/A,,Clear,140,2012-11-08 14:16:00
7:36 AM,39.2,12.2,33,30.00,10.0,SE,13.8,19.6,N/A,,Clear,140,2012-11-08 14:36:00
7:56 AM,41.0,10.4,29,30.00,10.0,SSE,13.8,20.7,N/A,,Clear,150,2012-11-08 14:56:00
8:16 AM,42.8,10.4,27,30.00,10.0,SSE,15.0,23.0,N/A,,Clear,150,2012-11-08 15:16:00
8:36 AM,42.8,10.4,27,29.99,10.0,SSE,16.1,21.9,N/A,,Clear,150,2012-11-08 15:36:00
8:56 AM,42.8,10.4,27,29.98,10.0,SE,19.6,23.0,N/A,,Clear,140,2012-11-08 15:56:00
9:16 AM,44.6,10.4,25,29.97,10.0,SSE,26.5,29.9,N/A,,Clear,150,2012-11-08 16:16:00
9:36 AM,44.6,10.4,25,29.97,10.0,SE,21.9,28.8,N/A,,Clear,140,2012-11-08 16:36:00
9:56 AM,44.6,10.4,25,29.96,10.0,SE,20.7,24.2,N/A,,Clear,140,2012-11-08 16:56:00
10:16 AM,46.4,8.6,22,29.96,10.0,SSE,17.3,25.3,N/A,,Clear,160,2012-11-08 17:16:00
10:36 AM,46.4,8.6,22,29.95,10.0,SSE,16.1,23.0,N/A,,Clear,150,2012-11-08 17:36:00
10:56 AM,46.4,8.6,22,29.95,10.0,South,15.0,33.4,N/A,,Clear,170,2012-11-08 17:56:00
11:16 AM,46.4,8.6,22,29.92,10.0,SSE,25.3,32.2,N/A,,Clear,150,2012-11-08 18:16:00
11:36 AM,46.4,8.6,22,29.91,10.0,SSE,26.5,32.2,N/A,,Clear,150,2012-11-08 18:36:00
11:56 AM,48.2,8.6,20,29.91,10.0,SSE,17.3,27.6,N/A,,Clear,160,2012-11-08 18:56:00
12:16 PM,48.2,5.0,17,29.90,10.0,SSE,19.6,26.5,N/A,,Clear,160,2012-11-08 19:16:00
12:36 PM,50.0,5.0,16,29.90,10.0,South,15.0,29.9,N/A,,Clear,180,2012-11-08 19:36:00
12:56 PM,50.0,3.2,15,29.90,10.0,SSW,11.5,25.3,N/A,,Clear,200,2012-11-08 19:56:00
1:16 PM,50.0,3.2,15,29.87,10.0,SSE,17.3,26.5,N/A,,Clear,150,2012-11-08 20:16:00
1:36 PM,50.0,1.4,14,29.87,10.0,SSE,16.1,29.9,N/A,,Clear,150,2012-11-08 20:36:00
1:56 PM,50.0,1.4,14,29.86,10.0,SSE,23.0,31.1,N/A,,Clear,150,2012-11-08 20:56:00
2:16 PM,50.0,-2.2,12,29.87,10.0,SSE,18.4,31.1,N/A,,Clear,160,2012-11-08 21:16:00
2:36 PM,50.0,-2.2,12,29.87,10.0,South,20.7,34.5,N/A,,Clear,170,2012-11-08 21:36:00
2:56 PM,50.0,-4.0,11,29.86,10.0,South,24.2,31.1,N/A,,Clear,170,2012-11-08 21:56:00
3:16 PM,50.0,-9.4,8,29.86,10.0,South,21.9,29.9,N/A,,Clear,170,2012-11-08 22:16:00
3:36 PM,50.0,-20.2,5,29.87,10.0,SSW,16.1,27.6,N/A,,Clear,200,2012-11-08 22:36:00
3:56 PM,48.2,-23.8,4,29.87,10.0,SSW,21.9,31.1,N/A,,Clear,200,2012-11-08 22:56:00
4:16 PM,46.4,-18.4,6,29.87,10.0,South,23.0,31.1,N/A,,Clear,190,2012-11-08 23:16:00
4:36 PM,46.4,-13.0,8,29.87,10.0,South,20.7,26.5,N/A,,Clear,190,2012-11-08 23:36:00
4:56 PM,44.6,-11.2,9,29.87,10.0,South,16.1,26.5,N/A,,Scattered Clouds,180,2012-11-08 23:56:00
5:16 PM,44.6,-9.4,10,29.87,10.0,South,16.1,24.2,N/A,,Scattered Clouds,180,2012-11-09 00:16:00
5:36 PM,44.6,-9.4,10,29.86,10.0,South,16.1,24.2,N/A,,Scattered Clouds,170,2012-11-09 00:36:00
5:56 PM,44.6,-5.8,12,29.86,10.0,South,19.6,29.9,N/A,,Clear,170,2012-11-09 00:56:00
6:16 PM,44.6,-5.8,12,29.86,10.0,South,20.7,29.9,N/A,,Clear,170,2012-11-09 01:16:00
6:36 PM,42.8,-4.0,14,29.85,10.0,SSE,20.7,26.5,N/A,,Clear,160,2012-11-09 01:36:00
6:56 PM,42.8,-4.0,14,29.84,10.0,SSE,19.6,29.9,N/A,,Clear,150,2012-11-09 01:56:00
7:16 PM,42.8,-4.0,14,29.84,10.0,SSE,21.9,32.2,N/A,,Clear,160,2012-11-09 02:16:00
7:36 PM,42.8,-5.8,13,29.83,10.0,SSE,19.6,35.7,N/A,,Clear,160,2012-11-09 02:36:00
7:56 PM,42.8,-5.8,13,29.83,10.0,SSE,19.6,28.8,N/A,,Clear,160,2012-11-09 02:56:00
8:16 PM,41.0,-5.8,14,29.82,10.0,SSE,20.7,31.1,N/A,,Scattered Clouds,150,2012-11-09 03:16:00
8:36 PM,41.0,-7.6,13,29.81,10.0,SSE,20.7,33.4,N/A,,Clear,150,2012-11-09 03:36:00
8:56 PM,41.0,-9.4,12,29.81,10.0,SE,23.0,32.2,N/A,,Clear,140,2012-11-09 03:56:00
9:16 PM,41.0,-9.4,12,29.81,10.0,SSE,20.7,33.4,N/A,,Clear,160,2012-11-09 04:16:00
9:36 PM,41.0,-7.6,13,29.83,10.0,SE,19.6,28.8,N/A,,Clear,140,2012-11-09 04:36:00
9:56 PM,41.0,-5.8,14,29.83,10.0,South,18.4,28.8,N/A,,Clear,170,2012-11-09 04:56:00
10:16 PM,41.0,-5.8,14,29.83,10.0,South,19.6,26.5,N/A,,Scattered Clouds,180,2012-11-09 05:16:00
10:36 PM,41.0,-5.8,14,29.83,10.0,SSW,13.8,-,N/A,,Mostly Cloudy,210,2012-11-09 05:36:00
10:56 PM,39.2,-4.0,16,29.83,10.0,SSW,15.0,-,N/A,,Scattered Clouds,210,2012-11-09 05:56:00
11:16 PM,39.2,-4.0,16,29.83,10.0,South,12.7,21.9,N/A,,Scattered Clouds,190,2012-11-09 06:16:00
11:36 PM,39.2,-0.4,19,29.81,10.0,South,16.1,21.9,N/A,,Mostly Cloudy,170,2012-11-09 06:36:00
11:56 PM,39.2,-0.4,19,29.79,10.0,SSE,18.4,25.3,N/A,,Scattered Clouds,150,2012-11-09 06:56:00